Time;durP1;ratioP1;P1;durP2;ratioP2;P2;SDS_P1;SDS_P2;PMS_P1;PMS_P2;Temp;Humidity;BMP_temperature;BMP_pressure;BME280_temperature;BME280_humidity;BME280_pressure;Samples;Min_cycle;Max_cycle;Signal;HPM_P1;HPM_P2
2023/10/11 00:01:02;;;;;;;5.20;3.22;;;20.90;59.20;22.30;101248.00;;;;5071095;28;20264;-75
2023/10/11 00:03:33;;;;;;;6.28;3.45;;;20.90;59.30;22.30;101245.00;;;;5070083;28;20202;-74
2023/10/11 00:06:04;;;;;;;5.22;3.70;;;20.90;59.40;22.30;101244.00;;;;5075771;28;20244;-75
2023/10/11 00:08:39;;;;;;;7.90;3.97;;;20.80;59.40;22.30;101253.00;;;;5069457;28;20195;-75
2023/10/11 00:11:08;;;;;;;5.95;4.03;;;20.80;59.40;22.30;101247.00;;;;5070435;28;20202;-75
2023/10/11 00:13:37;;;;;;;5.80;4.18;;;20.80;59.50;22.30;101240.00;;;;5078397;28;20190;-75
2023/10/11 00:16:08;;;;;;;6.15;3.72;;;20.80;59.50;22.30;101241.00;;;;5084115;28;20191;-75
2023/10/11 00:18:37;;;;;;;8.23;4.30;;;20.80;59.60;22.30;101238.00;;;;5073501;28;20221;-75
2023/10/11 00:21:10;;;;;;;7.18;4.22;;;20.80;59.80;22.30;101238.00;;;;5081615;28;20205;-75
2023/10/11 00:23:41;;;;;;;7.30;4.05;;;20.80;59.70;22.30;101232.00;;;;5070012;28;20214;-74
2023/10/11 00:26:09;;;;;;;5.60;4.00;;;20.80;59.80;22.30;101235.00;;;;5075275;28;20565;-75
2023/10/11 00:28:38;;;;;;;6.75;4.32;;;20.80;59.80;22.30;101246.00;;;;5068845;28;20570;-75
2023/10/11 00:31:12;;;;;;;8.60;5.40;;;20.80;59.90;22.30;101239.00;;;;5079632;28;20603;-75
2023/10/11 00:33:39;;;;;;;5.05;4.20;;;20.80;60.00;22.30;101240.00;;;;5070400;28;20276;-75
2023/10/11 00:36:06;;;;;;;6.50;3.90;;;20.80;60.00;22.30;101240.00;;;;5068934;28;20219;-75
2023/10/11 00:38:43;;;;;;;6.57;4.22;;;20.80;60.80;22.30;101236.00;;;;5077452;28;20230;-75
2023/10/11 00:41:15;;;;;;;8.23;4.88;;;20.80;60.10;22.30;101234.00;;;;5082730;28;20293;-75
2023/10/11 00:43:47;;;;;;;5.53;3.92;;;20.80;60.20;22.30;101235.00;;;;5071354;28;20694;-75
2023/10/11 00:46:15;;;;;;;7.97;4.22;;;20.80;60.20;22.30;101236.00;;;;5082563;28;20202;-75
2023/10/11 00:48:51;;;;;;;7.32;4.63;;;20.80;60.30;22.30;101237.00;;;;5074616;28;20293;-75
2023/10/11 00:51:19;;;;;;;7.93;4.93;;;20.80;60.40;22.30;101222.00;;;;5078254;28;20202;-75
2023/10/11 00:53:47;;;;;;;13.43;5.45;;;20.80;60.40;22.30;101225.00;;;;5076725;28;20221;-75
2023/10/11 00:56:18;;;;;;;9.38;4.85;;;20.80;60.60;22.30;101223.00;;;;5075851;28;20555;-74
2023/10/11 00:58:45;;;;;;;6.18;4.72;;;20.80;60.60;22.30;101216.00;;;;5071667;28;20225;-75
2023/10/11 01:01:14;;;;;;;7.75;4.00;;;20.80;60.60;22.30;101221.00;;;;5069175;28;20219;-74
2023/10/11 01:03:42;;;;;;;7.00;4.82;;;20.80;60.60;22.30;101226.00;;;;5072900;28;20280;-75
2023/10/11 01:06:10;;;;;;;6.65;4.28;;;20.80;60.60;22.30;101233.00;;;;5075117;28;20207;-74
2023/10/11 01:08:42;;;;;;;14.43;4.88;;;20.80;60.60;22.30;101228.00;;;;5072534;28;20808;-75
2023/10/11 01:11:12;;;;;;;8.93;4.38;;;20.80;60.70;22.20;101223.00;;;;5080800;28;20203;-75
2023/10/11 01:13:41;;;;;;;8.50;5.68;;;20.80;60.70;22.20;101221.00;;;;5069693;28;20199;-75
2023/10/11 01:16:10;;;;;;;8.52;5.18;;;20.80;60.80;22.20;101224.00;;;;5077942;28;20198;-75
2023/10/11 01:18:39;;;;;;;7.45;4.97;;;20.80;60.80;22.20;101212.00;;;;5072153;28;20241;-75
2023/10/11 01:21:08;;;;;;;7.25;4.97;;;20.80;60.90;22.20;101220.00;;;;5071590;28;20236;-75
2023/10/11 01:23:35;;;;;;;10.90;4.97;;;20.80;61.00;22.20;101215.00;;;;5077148;28;20202;-75
2023/10/11 01:26:07;;;;;;;6.78;4.70;;;20.80;61.00;22.20;101206.00;;;;5083799;28;20198;-75
2023/10/11 01:28:35;;;;;;;7.95;5.30;;;20.80;61.00;22.20;101203.00;;;;5077161;28;20195;-75
2023/10/11 01:31:08;;;;;;;11.50;5.03;;;20.80;61.00;22.20;101198.00;;;;5069702;28;20203;-75
2023/10/11 01:33:37;;;;;;;7.50;5.03;;;20.80;61.00;22.20;101210.00;;;;5074394;28;20198;-75
2023/10/11 01:36:08;;;;;;;9.70;4.82;;;20.80;61.10;22.20;101202.00;;;;5073385;28;20260;-75
2023/10/11 01:38:45;;;;;;;11.18;5.53;;;20.70;61.00;22.20;101200.00;;;;5069967;28;20223;-75
2023/10/11 01:41:15;;;;;;;8.93;5.57;;;20.70;61.00;22.20;101190.00;;;;5068241;28;20296;-75
2023/10/11 01:43:45;;;;;;;6.78;4.07;;;20.70;61.00;22.20;101198.00;;;;5079643;28;20202;-75
2023/10/11 01:46:14;;;;;;;7.60;4.50;;;20.70;61.10;22.20;101191.00;;;;5083124;28;20252;-75
2023/10/11 01:48:41;;;;;;;8.85;5.18;;;20.70;61.10;22.20;101191.00;;;;5068809;28;20202;-75
2023/10/11 01:51:09;;;;;;;6.88;4.28;;;20.70;61.10;22.20;101184.00;;;;5068779;28;20199;-75
2023/10/11 01:53:36;;;;;;;7.25;5.63;;;20.70;61.20;22.20;101180.00;;;;5067893;28;20674;-75
2023/10/11 01:56:04;;;;;;;9.18;4.88;;;20.70;61.20;22.20;101181.00;;;;5087604;28;20213;-74
2023/10/11 01:58:31;;;;;;;8.43;5.35;;;20.70;61.20;22.20;101173.00;;;;5075105;28;20323;-75
2023/10/11 02:00:58;;;;;;;8.27;4.68;;;20.70;61.20;22.20;101170.00;;;;5078828;28;20582;-75
2023/10/11 02:03:25;;;;;;;9.25;4.50;;;20.70;61.20;22.20;101160.00;;;;5075149;28;20199;-75
2023/10/11 02:05:52;;;;;;;11.52;5.88;;;20.70;61.30;22.20;101168.00;;;;5078516;28;20255;-75
2023/10/11 02:08:20;;;;;;;6.50;4.90;;;20.70;61.30;22.20;101171.00;;;;5082739;28;20201;-75
2023/10/11 02:10:47;;;;;;;9.77;5.53;;;20.70;61.30;22.20;101165.00;;;;5075289;28;20198;-75
2023/10/11 02:13:15;;;;;;;7.82;5.57;;;20.70;61.30;22.20;101174.00;;;;5088378;28;20191;-75
2023/10/11 02:15:42;;;;;;;8.45;4.45;;;20.70;61.30;22.10;101174.00;;;;5071789;28;20201;-75
2023/10/11 02:18:10;;;;;;;9.32;4.95;;;20.60;61.30;22.10;101171.00;;;;5075832;28;20234;-75
2023/10/11 02:20:44;;;;;;;8.90;5.30;;;20.60;61.30;22.10;101166.00;;;;5074220;28;20194;-75
2023/10/11 02:23:12;;;;;;;12.63;5.40;;;20.60;61.30;22.10;101153.00;;;;5081525;28;20206;-75
2023/10/11 02:25:42;;;;;;;7.57;4.72;;;20.60;61.30;22.10;101152.00;;;;5087741;28;20220;-75
2023/10/11 02:28:10;;;;;;;6.57;4.70;;;20.60;61.40;22.10;101143.00;;;;5087336;28;20245;-75
2023/10/11 02:30:39;;;;;;;9.38;4.97;;;20.60;61.30;22.10;101141.00;;;;5087290;28;20190;-75
2023/10/11 02:33:11;;;;;;;9.55;5.22;;;20.60;61.30;22.10;101136.00;;;;5077170;28;20572;-75
2023/10/11 02:35:51;;;;;;;7.88;5.13;;;20.50;61.30;22.00;101141.00;;;;5072326;28;20288;-75
2023/10/11 02:38:23;;;;;;;7.60;5.45;;;20.50;61.30;22.00;101136.00;;;;5068142;28;20223;-75
2023/10/11 02:40:57;;;;;;;7.57;4.90;;;20.50;61.60;22.00;101138.00;;;;5078299;28;20202;-75
2023/10/11 02:43:26;;;;;;;8.35;5.40;;;20.50;61.30;22.00;101134.00;;;;5080309;28;20186;-75
2023/10/11 02:45:53;;;;;;;8.20;4.40;;;20.50;61.30;22.00;101129.00;;;;5071549;28;20203;-75
2023/10/11 02:48:21;;;;;;;8.05;5.15;;;20.40;61.30;21.90;101138.00;;;;5080661;28;20269;-75
2023/10/11 02:50:49;;;;;;;7.95;5.35;;;20.40;61.30;21.90;101141.00;;;;5076255;28;20195;-75
2023/10/11 02:53:22;;;;;;;9.00;5.38;;;20.40;61.30;21.90;101142.00;;;;5092024;28;20198;-75
2023/10/11 02:55:58;;;;;;;7.50;6.03;;;20.30;61.30;21.80;101136.00;;;;5075195;28;20657;-75
2023/10/11 02:58:27;;;;;;;8.18;5.47;;;20.30;61.40;21.80;101151.00;;;;5076475;28;20218;-75
2023/10/11 03:00:56;;;;;;;7.05;4.80;;;20.30;61.40;21.80;101143.00;;;;5074540;28;20605;-75
2023/10/11 03:03:26;;;;;;;7.57;5.57;;;20.30;61.40;21.80;101144.00;;;;5078834;28;20191;-75
2023/10/11 03:05:55;;;;;;;9.43;5.18;;;20.20;61.30;21.80;101147.00;;;;5086567;28;20563;-75
2023/10/11 03:08:26;;;;;;;7.50;4.93;;;20.20;61.40;21.70;101144.00;;;;5083181;28;20203;-75
2023/10/11 03:10:56;;;;;;;11.30;5.25;;;20.20;61.50;21.70;101140.00;;;;5070875;28;20203;-76
2023/10/11 03:13:29;;;;;;;8.73;4.82;;;20.10;61.50;21.70;101134.00;;;;5081360;28;20773;-75
2023/10/11 03:15:57;;;;;;;9.00;5.60;;;20.10;61.50;21.70;101131.00;;;;5071790;28;20207;-75
2023/10/11 03:18:26;;;;;;;5.97;5.03;;;20.10;61.60;21.60;101137.00;;;;5079015;28;20326;-75
2023/10/11 03:21:07;;;;;;;10.43;5.60;;;20.10;61.60;21.60;101138.00;;;;5070141;28;20290;-75
2023/10/11 03:23:37;;;;;;;6.50;5.05;;;20.00;61.60;21.60;101136.00;;;;5073570;28;20578;-75
2023/10/11 03:26:16;;;;;;;7.10;5.05;;;20.00;61.70;21.50;101135.00;;;;5071206;28;21064;-75
2023/10/11 03:28:44;;;;;;;8.02;5.20;;;20.00;61.80;21.50;101134.00;;;;5090370;28;20267;-75
2023/10/11 03:31:13;;;;;;;7.70;5.47;;;20.00;61.80;21.50;101125.00;;;;5074971;28;20203;-75
2023/10/11 03:33:41;;;;;;;7.82;5.63;;;20.00;61.90;21.50;101126.00;;;;5080126;28;20629;-75
2023/10/11 03:36:18;;;;;;;9.13;5.55;;;19.90;61.90;21.50;101121.00;;;;5076437;28;20222;-75
2023/10/11 03:38:52;;;;;;;7.88;5.53;;;19.90;61.90;21.40;101119.00;;;;5078635;28;20232;-75
2023/10/11 03:41:28;;;;;;;7.28;4.95;;;19.90;62.00;21.40;101129.00;;;;5087704;28;20252;-75
2023/10/11 03:44:00;;;;;;;8.90;5.85;;;19.90;62.10;21.40;101135.00;;;;5087704;28;20229;-75
2023/10/11 03:46:33;;;;;;;7.75;4.97;;;19.90;62.10;21.40;101127.00;;;;5081431;28;20198;-75
2023/10/11 03:49:14;;;;;;;9.93;5.78;;;19.90;62.10;21.40;101120.00;;;;5074290;28;20195;-75
2023/10/11 03:51:43;;;;;;;7.32;5.30;;;19.90;62.20;21.40;101119.00;;;;5082641;28;20665;-75
2023/10/11 03:54:13;;;;;;;7.80;5.47;;;19.90;62.20;21.40;101109.00;;;;5069079;28;20202;-75
2023/10/11 03:56:45;;;;;;;7.03;5.30;;;19.80;62.20;21.40;101105.00;;;;5085475;28;20260;-75
2023/10/11 03:59:13;;;;;;;8.70;5.57;;;19.80;62.20;21.40;101119.00;;;;5078036;28;20598;-75
2023/10/11 04:01:40;;;;;;;8.63;5.65;;;19.90;62.30;21.40;101119.00;;;;5086428;28;20230;-75
2023/10/11 04:04:07;;;;;;;10.50;6.22;;;19.80;62.30;21.40;101110.00;;;;5079546;28;20199;-75
2023/10/11 04:06:34;;;;;;;10.30;5.88;;;19.80;62.30;21.40;101105.00;;;;5073848;28;20217;-76
2023/10/11 04:09:02;;;;;;;9.35;4.78;;;19.80;62.40;21.40;101103.00;;;;5072175;28;20201;-75
2023/10/11 04:11:37;;;;;;;12.38;5.22;;;19.80;62.40;21.40;101101.00;;;;5069281;28;20207;-75
2023/10/11 04:14:12;;;;;;;8.10;4.95;;;19.90;62.50;21.40;101095.00;;;;5073298;28;20243;-75
2023/10/11 04:16:39;;;;;;;8.60;5.25;;;19.80;62.40;21.40;101090.00;;;;5080006;28;20197;-75
2023/10/11 04:19:08;;;;;;;8.90;6.10;;;19.80;62.40;21.40;101087.00;;;;5076295;28;20222;-75
2023/10/11 04:21:54;;;;;;;8.52;5.53;;;19.80;62.50;21.40;101093.00;;;;5076246;28;20202;-75
2023/10/11 04:24:21;;;;;;;8.35;5.78;;;19.80;62.60;21.40;101106.00;;;;5071915;28;20607;-75
2023/10/11 04:26:53;;;;;;;9.15;5.75;;;19.80;62.60;21.40;101109.00;;;;5069472;28;20298;-75
2023/10/11 04:29:23;;;;;;;11.82;5.60;;;19.80;62.70;21.40;101113.00;;;;5069944;28;20290;-75
2023/10/11 04:32:09;;;;;;;8.40;5.90;;;19.80;62.70;21.40;101112.00;;;;5076827;28;20440;-75
2023/10/11 04:34:38;;;;;;;12.55;6.70;;;19.80;62.70;21.40;101118.00;;;;5087298;28;20198;-75
2023/10/11 04:37:16;;;;;;;9.50;6.32;;;19.80;62.80;21.40;101127.00;;;;5071447;28;20214;-75
2023/10/11 04:39:49;;;;;;;9.65;6.40;;;19.80;62.80;21.40;101121.00;;;;5069541;28;20226;-75
2023/10/11 04:42:19;;;;;;;9.75;5.97;;;19.80;62.80;21.40;101113.00;;;;5075051;28;20257;-75
2023/10/11 04:44:54;;;;;;;8.90;5.72;;;19.80;62.90;21.40;101105.00;;;;5071647;28;20190;-75
2023/10/11 04:47:23;;;;;;;9.70;6.63;;;19.80;62.90;21.40;101103.00;;;;5083903;28;20202;-75
2023/10/11 04:49:52;;;;;;;8.00;6.40;;;19.80;62.90;21.40;101107.00;;;;5079413;28;20252;-75
2023/10/11 04:52:24;;;;;;;9.73;7.10;;;19.90;63.00;21.40;101103.00;;;;5087056;28;20202;-75
2023/10/11 04:54:54;;;;;;;9.10;6.03;;;19.80;62.90;21.40;101102.00;;;;5077370;28;20293;-75
2023/10/11 04:57:39;;;;;;;8.55;6.20;;;19.80;63.60;21.40;101108.00;;;;5081858;28;20237;-75
2023/10/11 05:00:11;;;;;;;8.45;5.90;;;19.80;62.90;21.40;101108.00;;;;5069782;28;20613;-75
2023/10/11 05:02:38;;;;;;;10.65;6.50;;;19.90;63.00;21.40;101105.00;;;;5068011;28;20237;-75
2023/10/11 05:05:10;;;;;;;15.05;7.00;;;19.90;63.10;21.40;101119.00;;;;5069174;28;20688;-75
2023/10/11 05:07:42;;;;;;;11.57;6.40;;;19.90;63.00;21.40;101117.00;;;;5071584;28;20245;-75
2023/10/11 05:10:29;;;;;;;7.25;5.63;;;19.90;63.00;21.40;101127.00;;;;5077706;28;20289;-75
2023/10/11 05:13:05;;;;;;;10.80;6.38;;;19.90;63.00;21.40;101122.00;;;;5075903;28;20190;-75
2023/10/11 05:15:42;;;;;;;10.65;7.05;;;19.90;63.00;21.40;101117.00;;;;5079778;28;20190;-75
2023/10/11 05:18:09;;;;;;;10.40;5.45;;;19.90;63.60;21.40;101119.00;;;;5076972;28;20316;-75
2023/10/11 05:20:57;;;;;;;11.90;7.20;;;19.90;63.00;21.50;101125.00;;;;5070265;28;20193;-74
2023/10/11 05:23:33;;;;;;;10.35;6.15;;;19.90;63.10;21.40;101124.00;;;;5069667;28;20191;-74
2023/10/11 05:25:59;;;;;;;10.18;6.10;;;19.90;63.10;21.40;101117.00;;;;5073650;28;20276;-74
2023/10/11 05:28:27;;;;;;;9.18;6.18;;;19.90;63.10;21.40;101116.00;;;;5072696;28;20209;-74
2023/10/11 05:31:19;;;;;;;11.68;7.15;;;19.90;63.20;21.40;101104.00;;;;5075770;28;20191;-74
2023/10/11 05:34:29;;;;;;;9.20;6.43;;;19.90;63.20;21.40;101102.00;;;;5072325;28;20193;-74
2023/10/11 05:50:50;;;;;;;9.35;5.97;;;19.90;63.10;21.40;101112.00;;;;5087731;28;20292;-74
2023/10/11 05:50:54;;;;;;;9.48;6.00;;;19.90;63.20;21.50;101096.00;;;;5082428;28;20329;-74
2023/10/11 05:53:24;;;;;;;8.65;6.47;;;19.90;63.20;21.50;101080.00;;;;5072300;28;20309;-74
2023/10/11 05:55:52;;;;;;;7.70;6.18;;;19.90;63.20;21.50;101095.00;;;;5087131;28;20284;-75
2023/10/11 05:58:20;;;;;;;9.90;6.60;;;19.90;63.20;21.40;101082.00;;;;5073570;28;20759;-74
2023/10/11 06:00:54;;;;;;;9.38;6.80;;;19.90;63.30;21.40;101095.00;;;;5071245;28;20266;-75
2023/10/11 06:03:28;;;;;;;7.90;6.05;;;19.90;63.30;21.50;101111.00;;;;5073409;28;20683;-75
2023/10/11 06:05:55;;;;;;;10.75;6.10;;;19.90;63.40;21.50;101109.00;;;;5068159;28;20190;-75
2023/10/11 06:08:24;;;;;;;11.10;7.13;;;20.00;63.50;21.50;101108.00;;;;5078597;28;20444;-75
2023/10/11 06:10:56;;;;;;;12.95;6.05;;;20.00;63.50;21.50;101107.00;;;;5080017;28;20210;-75
2023/10/11 06:13:23;;;;;;;11.57;7.13;;;20.00;63.60;21.50;101106.00;;;;5076977;28;20251;-75
2023/10/11 06:16:03;;;;;;;10.30;6.38;;;20.00;63.50;21.50;101107.00;;;;5082291;28;20210;-75
2023/10/11 06:18:39;;;;;;;10.10;5.68;;;20.00;63.60;21.50;101099.00;;;;5083021;28;20218;-75
2023/10/11 06:21:08;;;;;;;10.88;6.43;;;20.00;63.60;21.60;101095.00;;;;5079705;28;20279;-75
2023/10/11 06:23:38;;;;;;;9.43;6.50;;;20.00;63.70;21.60;101091.00;;;;5071929;28;20226;-75
2023/10/11 06:28:47;;;;;;;12.00;7.25;;;20.00;63.70;21.60;101109.00;;;;5090956;28;20651;-76
2023/10/11 06:31:14;;;;;;;11.18;7.13;;;20.10;63.80;21.60;101112.00;;;;5080579;28;20198;-75
2023/10/11 06:33:45;;;;;;;8.88;6.53;;;20.10;63.80;21.60;101123.00;;;;5070853;28;20297;-75
2023/10/11 06:36:16;;;;;;;9.98;6.72;;;20.10;63.90;21.60;101134.00;;;;5071706;28;20250;-75
2023/10/11 06:38:44;;;;;;;8.50;6.72;;;20.10;63.90;21.70;101131.00;;;;5072106;28;20223;-75
2023/10/11 06:43:56;;;;;;;12.77;6.70;;;20.10;64.00;21.70;101136.00;;;;5070701;28;20209;-75
2023/10/11 06:46:22;;;;;;;13.07;6.55;;;20.10;64.00;21.70;101131.00;;;;5073008;28;20217;-75
2023/10/11 06:48:55;;;;;;;13.75;7.05;;;20.10;64.00;21.70;101138.00;;;;5072078;28;20724;-75
2023/10/11 06:51:22;;;;;;;9.65;6.82;;;20.20;64.10;21.70;101139.00;;;;5071862;28;20195;-75
2023/10/11 06:53:49;;;;;;;8.98;6.53;;;20.20;64.10;21.70;101140.00;;;;5074549;28;20989;-75
2023/10/11 06:56:16;;;;;;;10.82;6.45;;;20.20;64.20;21.80;101140.00;;;;5075540;28;20297;-75
2023/10/11 06:58:45;;;;;;;10.27;7.15;;;20.20;64.30;21.80;101132.00;;;;5085092;28;20263;-76
2023/10/11 07:01:14;;;;;;;13.13;8.10;;;20.30;64.40;21.80;101127.00;;;;5082155;28;20230;-75
2023/10/11 07:03:41;;;;;;;11.35;7.20;;;20.30;64.40;21.80;101127.00;;;;5082092;28;20679;-75
2023/10/11 07:06:12;;;;;;;13.50;7.38;;;20.30;64.40;21.80;101129.00;;;;5079103;28;20977;-75
2023/10/11 07:08:49;;;;;;;8.48;6.53;;;20.30;64.40;21.90;101126.00;;;;5083099;28;20210;-76
2023/10/11 07:11:40;;;;;;;8.80;6.47;;;20.30;64.50;21.80;101125.00;;;;5077187;28;20659;-75
2023/10/11 07:14:14;;;;;;;10.73;6.63;;;20.40;64.70;21.90;101125.00;;;;5088033;28;20193;-75
2023/10/11 07:16:44;;;;;;;9.80;7.32;;;20.40;64.70;21.90;101115.00;;;;5080531;28;20724;-75
2023/10/11 07:19:15;;;;;;;11.77;6.80;;;20.40;64.50;22.00;101117.00;;;;5070572;28;20321;-76
2023/10/11 07:24:34;;;;;;;8.98;6.78;;;20.50;64.60;22.00;101124.00;;;;5072825;28;20202;-75
2023/10/11 07:27:09;;;;;;;11.40;7.72;;;20.50;64.50;22.00;101129.00;;;;5069959;28;20194;-76
2023/10/11 07:29:37;;;;;;;11.40;6.72;;;20.50;64.50;22.00;101138.00;;;;5069031;28;20408;-76
2023/10/11 07:32:09;;;;;;;11.30;7.53;;;20.50;64.50;22.10;101133.00;;;;5069047;28;20210;-76
2023/10/11 07:34:38;;;;;;;12.27;6.22;;;20.50;64.50;22.10;101142.00;;;;5069241;28;20664;-76
2023/10/11 07:37:07;;;;;;;10.40;7.38;;;20.60;64.60;22.10;101150.00;;;;5070743;28;20210;-75
2023/10/11 07:39:34;;;;;;;12.73;7.30;;;20.60;64.60;22.10;101155.00;;;;5077981;28;20232;-76
2023/10/11 07:42:06;;;;;;;9.25;6.50;;;20.60;64.70;22.10;101160.00;;;;5088902;28;20194;-75
2023/10/11 07:44:36;;;;;;;12.05;7.25;;;20.60;64.60;22.10;101160.00;;;;5083578;28;20198;-75
2023/10/11 07:47:06;;;;;;;11.38;7.28;;;20.60;64.70;22.20;101165.00;;;;5086710;28;20260;-76
2023/10/11 07:49:38;;;;;;;9.73;6.82;;;20.70;64.80;22.20;101171.00;;;;5068681;28;20202;-76
2023/10/11 07:52:09;;;;;;;13.95;7.25;;;20.70;64.80;22.20;101169.00;;;;5068411;28;20195;-76
2023/10/11 07:54:39;;;;;;;14.48;7.95;;;20.70;64.80;22.20;101175.00;;;;5068158;28;20199;-76
2023/10/11 07:57:13;;;;;;;10.48;7.18;;;20.70;64.90;22.20;101165.00;;;;5072767;28;20196;-76
2023/10/11 07:59:40;;;;;;;13.05;7.85;;;20.70;64.80;22.20;101162.00;;;;5069384;28;20249;-76
2023/10/11 08:02:09;;;;;;;13.25;7.30;;;20.70;64.80;22.20;101162.00;;;;5082996;28;20226;-75
2023/10/11 08:04:46;;;;;;;11.15;7.30;;;20.70;64.80;22.30;101161.00;;;;5066823;28;20199;-76
2023/10/11 08:07:16;;;;;;;10.88;7.50;;;20.70;64.90;22.30;101160.00;;;;5075706;28;20198;-76
2023/10/11 08:09:46;;;;;;;12.38;7.90;;;20.80;65.00;22.30;101167.00;;;;5068535;28;20203;-76
2023/10/11 08:12:15;;;;;;;11.48;8.18;;;20.80;65.10;22.30;101169.00;;;;5069033;28;20201;-76
2023/10/11 08:14:44;;;;;;;14.82;7.97;;;20.80;65.20;22.30;101177.00;;;;5067640;28;20242;-76
2023/10/11 08:17:13;;;;;;;14.35;8.32;;;20.80;65.20;22.30;101173.00;;;;5071467;28;20207;-76
2023/10/11 08:19:44;;;;;;;11.00;8.40;;;20.80;65.20;22.40;101162.00;;;;5072872;28;20225;-76
2023/10/11 08:22:14;;;;;;;12.77;7.25;;;20.90;65.30;22.40;101169.00;;;;5073775;28;20217;-76
2023/10/11 08:24:48;;;;;;;15.50;7.82;;;20.80;65.20;22.40;101176.00;;;;5076357;28;20234;-76
2023/10/11 08:27:22;;;;;;;10.82;7.78;;;20.90;65.40;22.50;101182.00;;;;5067487;28;20270;-76
2023/10/11 08:29:54;;;;;;;11.05;7.85;;;20.90;65.40;22.50;101191.00;;;;5074284;28;20502;-76
2023/10/11 08:32:25;;;;;;;13.15;8.80;;;20.90;65.40;22.50;101182.00;;;;5079869;28;20313;-77
2023/10/11 08:34:52;;;;;;;13.63;8.48;;;21.00;65.50;22.50;101186.00;;;;5067629;28;20207;-76
2023/10/11 08:37:19;;;;;;;12.93;8.98;;;21.00;65.50;22.60;101186.00;;;;5071689;28;20202;-76
2023/10/11 08:39:47;;;;;;;11.63;8.88;;;21.00;65.50;22.50;101186.00;;;;5071947;28;20218;-76
2023/10/11 08:42:15;;;;;;;14.95;9.25;;;21.10;65.60;22.50;101186.00;;;;5068092;28;20207;-77
2023/10/11 08:44:45;;;;;;;14.38;9.20;;;21.10;65.50;22.60;101193.00;;;;5068752;28;20194;-76
2023/10/11 08:47:16;;;;;;;18.30;9.45;;;21.10;65.50;22.60;101182.00;;;;5075874;28;20689;-76
2023/10/11 08:49:48;;;;;;;15.40;9.77;;;21.10;65.60;22.60;101185.00;;;;5087401;28;20677;-78
2023/10/11 08:52:22;;;;;;;14.70;8.38;;;21.10;65.60;22.60;101189.00;;;;5082420;28;20210;-76
2023/10/11 08:54:51;;;;;;;23.33;14.60;;;21.10;65.60;22.60;101168.00;;;;5073885;28;20580;-77
2023/10/11 08:57:25;;;;;;;19.67;11.77;;;21.00;67.40;22.70;101169.00;;;;5072009;28;20198;-77
2023/10/11 08:59:56;;;;;;;17.95;11.20;;;21.10;67.20;22.70;101162.00;;;;5073153;28;20218;-76
2023/10/11 09:02:26;;;;;;;16.98;9.48;;;21.20;66.90;22.70;101165.00;;;;5069774;28;20292;-76
2023/10/11 09:05:03;;;;;;;16.13;10.10;;;21.10;66.40;22.60;101167.00;;;;5076426;28;20698;-75
2023/10/11 09:07:45;;;;;;;14.20;9.95;;;21.20;66.30;22.60;101181.00;;;;5076659;28;20203;-76
2023/10/11 09:10:29;;;;;;;16.20;9.07;;;21.20;66.40;22.60;101180.00;;;;5074868;28;20273;-76
2023/10/11 09:12:58;;;;;;;14.63;9.90;;;21.20;66.50;22.70;101175.00;;;;5079534;28;20186;-76
2023/10/11 09:15:40;;;;;;;15.63;9.73;;;21.20;66.10;22.60;101171.00;;;;5068934;28;20256;-76
2023/10/11 09:18:15;;;;;;;17.80;10.73;;;21.20;66.30;22.70;101179.00;;;;5070806;28;20204;-77
2023/10/11 09:20:49;;;;;;;20.42;10.02;;;21.20;66.20;22.70;101184.00;;;;5067653;28;20225;-77
2023/10/11 09:23:20;;;;;;;18.75;10.45;;;21.20;66.10;22.70;101179.00;;;;5076167;28;20697;-76
2023/10/11 09:25:58;;;;;;;14.23;9.80;;;21.30;66.20;22.70;101166.00;;;;5075563;28;20221;-76
2023/10/11 09:28:26;;;;;;;21.20;11.13;;;21.20;66.20;22.70;101172.00;;;;5082066;28;20194;-76
2023/10/11 09:31:10;;;;;;;21.10;11.32;;;21.30;66.30;22.60;101171.00;;;;5076480;28;20199;-77
2023/10/11 09:33:40;;;;;;;18.75;11.32;;;21.20;66.60;22.70;101175.00;;;;5072090;28;20656;-77
2023/10/11 09:36:08;;;;;;;19.05;11.40;;;21.20;66.30;22.70;101182.00;;;;5067322;28;20247;-77
2023/10/11 09:38:40;;;;;;;15.73;11.57;;;21.20;66.30;22.70;101180.00;;;;5067059;28;20230;-77
2023/10/11 09:41:10;;;;;;;16.48;10.98;;;21.30;66.50;22.70;101192.00;;;;5075475;28;20602;-77
2023/10/11 09:43:45;;;;;;;17.98;10.65;;;21.30;66.60;22.70;101196.00;;;;5068191;28;20483;-76
2023/10/11 09:46:14;;;;;;;14.80;10.38;;;21.30;66.60;22.80;101193.00;;;;5069483;28;20205;-76
2023/10/11 09:48:42;;;;;;;21.02;11.35;;;21.30;66.50;22.80;101181.00;;;;5081842;28;20203;-76
2023/10/11 09:51:13;;;;;;;17.98;11.13;;;21.30;66.70;22.80;101197.00;;;;5086832;28;20198;-76
2023/10/11 09:53:42;;;;;;;19.65;11.00;;;21.30;66.60;22.80;101205.00;;;;5081748;28;20648;-76
2023/10/11 09:56:30;;;;;;;15.10;10.48;;;21.30;66.70;22.70;101215.00;;;;5068412;28;20207;-77
2023/10/11 09:59:10;;;;;;;18.65;10.68;;;21.30;66.80;22.80;101220.00;;;;5078271;28;20251;-77
2023/10/11 10:01:45;;;;;;;20.48;11.90;;;21.40;66.70;22.80;101214.00;;;;5087224;28;20230;-77
2023/10/11 10:04:12;;;;;;;19.90;11.55;;;21.40;66.80;22.90;101222.00;;;;5076077;28;20197;-77
2023/10/11 10:06:41;;;;;;;15.07;9.80;;;21.40;66.70;22.90;101207.00;;;;5073697;28;20218;-77
2023/10/11 10:09:23;;;;;;;17.40;10.73;;;21.40;66.70;22.80;101207.00;;;;5079014;28;20202;-77
2023/10/11 10:12:22;;;;;;;25.30;10.73;;;21.40;66.90;22.80;101211.00;;;;5071441;28;20226;-77
2023/10/11 10:15:07;;;;;;;15.70;10.70;;;21.40;67.10;22.80;101213.00;;;;5073418;28;20195;-78
2023/10/11 10:17:35;;;;;;;20.50;10.80;;;21.40;66.90;22.90;101209.00;;;;5076950;28;20198;-77
2023/10/11 10:20:44;;;;;;;17.65;9.35;;;21.50;66.70;22.80;101210.00;;;;5073645;28;20219;-77
2023/10/11 10:23:29;;;;;;;16.73;9.07;;;21.50;67.00;22.90;101218.00;;;;5043324;28;20199;-77
2023/10/11 10:26:32;;;;;;;18.10;10.02;;;21.50;66.90;22.90;101213.00;;;;5075041;28;20203;-77
2023/10/11 10:29:00;;;;;;;14.63;9.00;;;21.50;67.00;23.10;101212.00;;;;5065451;28;20542;-76
2023/10/11 10:31:27;;;;;;;16.38;9.35;;;21.60;66.80;23.10;101214.00;;;;5071154;28;20614;-77
2023/10/11 10:34:24;;;;;;;12.70;8.70;;;21.60;66.80;23.00;101217.00;;;;5067085;28;20214;-77
2023/10/11 10:36:52;;;;;;;14.57;9.10;;;21.60;67.10;23.20;101209.00;;;;5080708;28;20272;-76
2023/10/11 10:39:36;;;;;;;20.10;8.32;;;21.70;66.90;23.20;101219.00;;;;5071548;28;20604;-76
2023/10/11 10:42:13;;;;;;;14.80;8.35;;;21.70;66.90;23.20;101227.00;;;;5066567;28;20215;-76
2023/10/11 10:44:53;;;;;;;17.85;9.13;;;21.70;67.10;23.20;101223.00;;;;5066710;28;20202;-77
2023/10/11 10:47:31;;;;;;;14.43;8.48;;;21.80;67.20;23.30;101218.00;;;;5067692;28;20672;-77
2023/10/11 10:50:08;;;;;;;18.02;7.90;;;21.80;67.10;23.40;101207.00;;;;5067132;28;20217;-77
2023/10/11 10:52:39;;;;;;;13.85;8.48;;;21.90;67.00;23.50;101201.00;;;;5080182;28;20198;-76
2023/10/11 10:55:07;;;;;;;18.23;8.15;;;22.00;67.00;23.50;101199.00;;;;5073658;28;20199;-76
2023/10/11 10:57:37;;;;;;;15.73;9.48;;;22.00;67.00;23.60;101185.00;;;;5069763;28;20551;-76
2023/10/11 11:00:20;;;;;;;16.83;8.70;;;22.10;67.10;23.60;101175.00;;;;5067321;28;20199;-76
2023/10/11 11:02:47;;;;;;;16.63;8.23;;;22.10;67.10;23.80;101168.00;;;;5066106;28;20214;-77
2023/10/11 11:05:24;;;;;;;15.85;7.65;;;22.20;67.20;23.90;101158.00;;;;5085700;28;20195;-76
2023/10/11 11:07:50;;;;;;;12.95;7.18;;;22.30;67.40;24.00;101151.00;;;;5076444;28;20287;-76
2023/10/11 11:10:20;;;;;;;15.15;9.27;;;22.40;67.40;24.10;101152.00;;;;5070679;28;20289;-76
2023/10/11 11:12:46;;;;;;;15.30;7.20;;;22.50;67.30;24.20;101162.00;;;;5074954;28;20675;-76
2023/10/11 11:15:20;;;;;;;14.43;7.97;;;22.60;67.10;24.20;101164.00;;;;5076040;28;20207;-77
2023/10/11 11:17:51;;;;;;;11.13;7.22;;;22.70;67.00;24.30;101152.00;;;;5069985;28;20187;-76
2023/10/11 11:23:06;;;;;;;10.32;6.88;;;22.80;66.40;24.40;101147.00;;;;5066521;28;20267;-76
2023/10/11 11:25:34;;;;;;;9.75;6.15;;;22.90;66.30;24.40;101141.00;;;;5072598;28;20194;-76